Time;durP1;ratioP1;P1;durP2;ratioP2;P2;SDS_P1;SDS_P2;PMS_P1;PMS_P2;Temp;Humidity;BMP_temperature;BMP_pressure;BME280_temperature;BME280_humidity;BME280_pressure;Samples;Min_cycle;Max_cycle;Signal;HPM_P1;HPM_P2
2022/08/09 00:00:57;;;;;;;;;18.00;17.00;;;;;23.05;49.51;101885.48;110643;1258;18806;-62
2022/08/09 00:03:25;;;;;;;;;21.00;16.67;;;;;22.98;49.77;101883.08;110690;1258;22272;-61
2022/08/09 00:05:52;;;;;;;;;20.00;16.50;;;;;23.02;49.50;101884.66;110704;1258;18782;-55
2022/08/09 00:08:19;;;;;;;;;22.00;18.00;;;;;23.00;49.77;101883.23;110720;1258;20380;-54
2022/08/09 00:10:47;;;;;;;;;16.67;16.00;;;;;22.95;49.87;101885.92;110435;1260;19542;-55
2022/08/09 00:13:15;;;;;;;;;18.33;17.00;;;;;23.02;49.83;101885.55;110457;1260;18750;-58
2022/08/09 00:15:42;;;;;;;;;20.00;19.00;;;;;23.08;49.75;101893.66;110769;1258;18820;-55
2022/08/09 00:18:10;;;;;;;;;15.67;15.67;;;;;23.08;49.75;101896.79;110695;1259;19490;-54
2022/08/09 00:20:37;;;;;;;;;21.00;17.00;;;;;23.08;49.79;101900.60;110730;1258;18675;-53
2022/08/09 00:23:04;;;;;;;;;17.00;17.00;;;;;23.03;49.82;101895.84;110718;1258;18807;-55
2022/08/09 00:25:32;;;;;;;;;19.00;17.00;;;;;23.04;49.87;101894.89;110725;1258;19706;-55
2022/08/09 00:27:59;;;;;;;;;16.00;16.00;;;;;23.04;50.00;101890.27;110741;1258;18755;-54
2022/08/09 00:30:27;;;;;;;;;15.00;15.00;;;;;23.00;50.03;101890.49;110448;1260;18856;-57
2022/08/09 00:32:54;;;;;;;;;16.00;16.00;;;;;23.00;50.14;101888.33;110463;1261;19528;-55
2022/08/09 00:35:22;;;;;;;;;16.00;16.00;;;;;23.00;50.37;101883.65;110698;1258;18790;-57
2022/08/09 00:37:50;;;;;;;;;19.67;18.67;;;;;23.00;50.42;101885.02;110499;1260;18822;-53
2022/08/09 00:40:17;;;;;;;;;19.33;17.00;;;;;22.90;50.60;101882.23;110493;1260;19609;-57
2022/08/09 00:42:45;;;;;;;;;19.00;16.00;;;;;22.84;50.82;101877.95;110468;1260;18768;-55
2022/08/09 00:45:12;;;;;;;;;17.00;16.00;;;;;22.85;50.76;101867.70;110725;1258;19391;-55
2022/08/09 00:47:39;;;;;;;;;24.00;22.00;;;;;22.78;51.18;101877.70;110725;1258;19755;-57
2022/08/09 00:50:07;;;;;;;;;25.33;22.67;;;;;22.77;51.47;101873.77;110711;1258;18812;-55
2022/08/09 00:52:34;;;;;;;;;24.50;21.50;;;;;22.75;51.84;101873.84;110719;1258;19316;-55
2022/08/09 00:55:01;;;;;;;;;19.00;19.00;;;;;22.39;52.46;101881.60;110514;1258;19553;-55
2022/08/09 00:57:29;;;;;;;;;17.00;17.00;;;;;22.41;52.75;101880.15;110492;1262;18795;-56
2022/08/09 00:59:56;;;;;;;;;20.00;17.33;;;;;22.53;52.46;101877.98;110721;1258;18837;-57
2022/08/09 01:02:24;;;;;;;;;18.67;18.00;;;;;22.43;52.56;101878.86;110770;1258;23177;-55
2022/08/09 01:04:51;;;;;;;;;23.67;20.00;;;;;22.42;52.58;101880.40;110419;1260;18789;-57
2022/08/09 01:07:19;;;;;;;;;20.33;18.33;;;;;22.21;53.01;101876.77;110491;1260;18951;-53
2022/08/09 01:09:46;;;;;;;;;21.00;19.50;;;;;22.13;53.35;101884.13;110715;1258;19633;-56
2022/08/09 01:12:14;;;;;;;;;20.50;20.00;;;;;22.17;53.18;101878.65;110467;1260;18709;-54
2022/08/09 01:14:41;;;;;;;;;18.00;16.00;;;;;22.11;53.36;101877.96;110460;1260;18984;-55
2022/08/09 01:17:09;;;;;;;;;24.50;20.50;;;;;22.07;53.34;101871.67;110718;1258;19493;-55
2022/08/09 01:19:36;;;;;;;;;19.00;18.00;;;;;22.14;53.29;101874.22;110466;1260;18702;-56
2022/08/09 01:22:03;;;;;;;;;19.33;17.33;;;;;22.12;53.34;101876.64;110450;1260;18995;-56
2022/08/09 01:24:30;;;;;;;;;29.00;27.67;;;;;22.30;53.00;101880.07;110685;1258;19470;-55
2022/08/09 01:26:58;;;;;;;;;38.00;31.67;;;;;22.47;52.57;101881.17;110469;1260;18915;-57
2022/08/09 01:29:25;;;;;;;;;28.33;24.67;;;;;22.48;52.38;101879.58;110723;1258;18846;-57
2022/08/09 01:31:53;;;;;;;;;27.67;24.67;;;;;22.36;52.72;101879.38;110389;1260;19520;-57
2022/08/09 01:34:20;;;;;;;;;22.67;19.33;;;;;22.23;52.97;101881.17;110814;1258;18742;-55
2022/08/09 01:36:47;;;;;;;;;26.00;22.00;;;;;22.03;53.45;101877.66;110706;1258;22637;-55
2022/08/09 01:39:15;;;;;;;;;23.00;20.33;;;;;22.11;53.48;101880.95;110733;1258;19920;-56
2022/08/09 01:41:42;;;;;;;;;21.00;19.50;;;;;22.08;53.57;101881.92;110774;1258;18880;-55
2022/08/09 01:44:09;;;;;;;;;18.00;16.67;;;;;22.18;53.20;101880.96;110488;1261;18887;-55
2022/08/09 01:46:37;;;;;;;;;23.33;19.00;;;;;22.24;53.08;101883.07;110761;1258;22293;-53
2022/08/09 01:49:04;;;;;;;;;19.50;15.00;;;;;22.38;52.84;101889.55;110497;1260;18690;-54
2022/08/09 01:51:31;;;;;;;;;20.00;18.67;;;;;22.50;52.58;101891.41;110768;1258;22292;-57
2022/08/09 01:53:59;;;;;;;;;18.00;15.67;;;;;22.43;52.69;101887.58;110643;1259;19456;-56
2022/08/09 01:56:26;;;;;;;;;18.00;16.00;;;;;22.54;52.42;101886.10;110694;1258;21129;-55
2022/08/09 01:58:54;;;;;;;;;15.50;15.00;;;;;22.64;52.21;101883.38;110440;1260;18730;-54
2022/08/09 02:01:21;;;;;;;;;21.00;16.67;;;;;22.58;52.25;101884.67;110372;1260;21135;-57
2022/08/09 02:03:48;;;;;;;;;15.67;15.00;;;;;22.62;52.23;101881.92;110711;1258;18739;-57
2022/08/09 02:06:16;;;;;;;;;14.00;14.00;;;;;22.67;51.99;101883.73;110716;1258;18980;-55
2022/08/09 02:08:43;;;;;;;;;14.67;14.67;;;;;22.65;52.09;101885.42;110674;1257;22682;-57
2022/08/09 02:11:10;;;;;;;;;16.00;15.00;;;;;22.63;52.09;101887.26;110745;1258;18953;-57
2022/08/09 02:13:38;;;;;;;;;16.00;15.33;;;;;22.30;53.02;101889.18;110468;1260;19486;-56
2022/08/09 02:16:06;;;;;;;;;16.00;15.00;;;;;22.38;52.86;101888.84;110464;1260;19483;-61
2022/08/09 02:18:33;;;;;;;;;15.00;15.00;;;;;22.46;52.74;101886.16;110736;1258;19063;-54
2022/08/09 02:21:00;;;;;;;;;14.00;14.00;;;;;22.46;52.72;101883.66;110777;1258;18956;-56
2022/08/09 02:23:28;;;;;;;;;15.33;15.33;;;;;22.20;53.29;101883.24;110718;1258;19514;-56
2022/08/09 02:25:55;;;;;;;;;19.00;15.00;;;;;22.31;53.17;101882.98;110478;1260;18781;-56
2022/08/09 02:28:22;;;;;;;;;18.00;16.00;;;;;22.51;52.91;101883.71;110740;1258;18817;-56
2022/08/09 02:30:50;;;;;;;;;15.00;15.00;;;;;22.51;52.78;101886.16;110399;1260;19532;-57
2022/08/09 02:33:17;;;;;;;;;15.00;14.00;;;;;22.38;53.36;101886.85;110420;1261;18956;-54
2022/08/09 02:35:45;;;;;;;;;18.00;15.67;;;;;22.14;53.82;101885.66;110727;1258;18999;-56
2022/08/09 02:38:12;;;;;;;;;15.00;14.33;;;;;22.12;53.85;101883.36;110706;1258;19584;-56
2022/08/09 02:40:39;;;;;;;;;15.00;14.00;;;;;22.19;53.38;101882.66;110760;1258;22670;-53
2022/08/09 02:43:07;;;;;;;;;14.00;14.00;;;;;22.27;53.04;101886.23;110792;1258;18913;-57
2022/08/09 02:45:34;;;;;;;;;15.33;14.00;;;;;22.21;53.07;101882.63;110707;1258;19448;-55
2022/08/09 02:48:01;;;;;;;;;16.33;14.67;;;;;22.28;52.99;101887.33;110720;1258;22295;-54
2022/08/09 02:50:29;;;;;;;;;14.00;14.00;;;;;22.17;52.99;101890.84;110783;1258;22106;-58
2022/08/09 02:52:56;;;;;;;;;14.00;14.00;;;;;21.99;53.34;101889.40;110703;1258;19781;-57
2022/08/09 02:55:23;;;;;;;;;14.00;13.50;;;;;21.83;53.63;101887.55;110434;1260;18716;-55
2022/08/09 02:57:51;;;;;;;;;15.00;14.00;;;;;21.90;53.72;101889.96;110736;1258;22138;-57
2022/08/09 03:00:18;;;;;;;;;16.00;16.00;;;;;22.01;53.62;101888.52;110469;1261;19532;-55
2022/08/09 03:02:46;;;;;;;;;15.00;14.33;;;;;22.11;53.28;101895.23;110441;1260;18799;-54
2022/08/09 03:05:13;;;;;;;;;16.00;15.00;;;;;21.97;53.61;101891.75;110455;1260;18839;-56
2022/08/09 03:07:40;;;;;;;;;15.00;13.00;;;;;21.73;54.33;101899.91;110454;1260;19480;-56
2022/08/09 03:10:08;;;;;;;;;14.00;13.67;;;;;21.70;54.48;101899.82;110735;1258;19030;-54
2022/08/09 03:12:35;;;;;;;;;13.00;13.00;;;;;21.48;54.99;101902.62;110751;1258;20036;-53
2022/08/09 03:15:02;;;;;;;;;15.00;15.00;;;;;21.31;55.50;101902.65;110736;1258;19803;-59
2022/08/09 03:17:30;;;;;;;;;14.00;14.00;;;;;21.43;55.43;101900.52;110741;1258;18677;-56
2022/08/09 03:19:57;;;;;;;;;14.00;14.00;;;;;21.54;55.23;101902.36;110732;1258;21727;-56
2022/08/09 03:22:24;;;;;;;;;18.00;16.33;;;;;21.29;55.83;101898.66;110487;1260;20064;-55
2022/08/09 03:24:52;;;;;;;;;15.00;15.00;;;;;21.27;55.96;101899.60;110723;1258;22775;-53
2022/08/09 03:27:19;;;;;;;;;15.67;14.67;;;;;21.34;55.99;101900.11;110434;1261;19081;-54
2022/08/09 03:29:47;;;;;;;;;17.33;16.00;;;;;21.48;55.65;101895.81;110789;1257;19513;-54
2022/08/09 03:32:14;;;;;;;;;17.33;16.00;;;;;21.42;55.90;101892.16;110740;1259;18887;-56
2022/08/09 03:34:41;;;;;;;;;15.00;14.00;;;;;21.27;56.10;101892.98;110480;1260;22743;-53
2022/08/09 03:37:09;;;;;;;;;17.00;15.00;;;;;21.28;56.09;101894.37;110784;1258;19525;-54
2022/08/09 03:39:37;;;;;;;;;14.00;13.33;;;;;21.19;56.67;101893.16;110795;1258;18736;-56
2022/08/09 03:42:04;;;;;;;;;17.00;13.50;;;;;21.20;56.49;101890.31;110709;1258;18810;-53
2022/08/09 03:44:32;;;;;;;;;15.00;15.00;;;;;21.18;56.77;101893.95;110714;1258;19672;-54
2022/08/09 03:46:59;;;;;;;;;14.67;14.67;;;;;20.79;57.74;101895.42;110742;1258;18920;-58
2022/08/09 03:49:26;;;;;;;;;15.67;14.00;;;;;20.81;57.88;101895.59;110483;1260;20102;-56
2022/08/09 03:51:54;;;;;;;;;13.67;13.33;;;;;20.98;57.50;101894.23;110683;1258;19512;-55
2022/08/09 03:54:22;;;;;;;;;17.00;15.00;;;;;20.96;57.63;101900.15;110704;1258;18829;-55
2022/08/09 03:56:49;;;;;;;;;16.00;14.00;;;;;20.86;57.90;101902.69;110704;1258;22169;-56
2022/08/09 03:59:17;;;;;;;;;16.67;15.33;;;;;21.11;57.52;101901.30;110689;1258;19346;-55
2022/08/09 04:01:44;;;;;;;;;18.33;16.33;;;;;21.31;56.92;101902.66;110472;1260;18853;-55
2022/08/09 04:04:11;;;;;;;;;15.00;15.00;;;;;21.44;56.52;101903.60;110589;1260;18943;-54
2022/08/09 04:06:39;;;;;;;;;14.67;14.00;;;;;21.55;56.20;101904.23;110738;1259;19650;-55
2022/08/09 04:09:06;;;;;;;;;16.33;14.67;;;;;21.48;56.49;101904.60;110770;1258;19031;-57
2022/08/09 04:11:33;;;;;;;;;12.67;11.00;;;;;21.50;56.22;101904.07;110571;1259;20337;-56
2022/08/09 04:14:01;;;;;;;;;15.00;14.00;;;;;21.58;56.10;101901.98;110471;1260;19464;-55
2022/08/09 04:16:28;;;;;;;;;15.67;14.33;;;;;21.50;56.33;101906.05;110439;1260;21332;-56
2022/08/09 04:18:55;;;;;;;;;14.00;14.00;;;;;21.38;56.47;101900.73;110738;1258;20222;-56
2022/08/09 04:21:23;;;;;;;;;14.00;13.00;;;;;21.42;56.51;101902.33;110732;1258;19528;-56
2022/08/09 04:23:50;;;;;;;;;15.50;15.00;;;;;21.51;56.05;101903.54;109880;1258;1132014;-52
2022/08/09 04:26:18;;;;;;;;;13.33;13.33;;;;;21.56;56.06;101903.62;110454;1260;18754;-55
2022/08/09 04:28:45;;;;;;;;;15.33;13.00;;;;;21.52;56.24;101905.46;110737;1258;19606;-54
2022/08/09 04:31:13;;;;;;;;;14.00;14.00;;;;;21.42;56.22;101902.42;110492;1260;19322;-55
2022/08/09 04:33:41;;;;;;;;;14.00;13.00;;;;;21.50;56.11;101908.92;110703;1258;23211;-53
2022/08/09 04:36:08;;;;;;;;;15.00;14.00;;;;;21.56;56.09;101909.78;110758;1258;19596;-54
2022/08/09 04:38:35;;;;;;;;;15.00;14.00;;;;;21.56;55.98;101912.27;110708;1258;18716;-56
2022/08/09 04:41:03;;;;;;;;;14.00;14.00;;;;;21.75;55.73;101915.73;110409;1260;18833;-57
2022/08/09 04:43:30;;;;;;;;;14.00;14.00;;;;;21.78;55.57;101915.98;110453;1260;19534;-58
2022/08/09 04:45:58;;;;;;;;;14.00;14.00;;;;;21.72;55.89;101915.80;110623;1258;18703;-57
2022/08/09 04:48:25;;;;;;;;;18.00;14.00;;;;;21.47;56.28;101921.23;110652;1258;19589;-55
2022/08/09 04:50:52;;;;;;;;;14.33;13.00;;;;;21.53;56.21;101920.30;110577;1258;19499;-55
2022/08/09 04:53:20;;;;;;;;;15.00;13.67;;;;;21.62;55.99;101922.66;110606;1259;20228;-57
2022/08/09 04:55:47;;;;;;;;;11.00;11.00;;;;;21.75;55.80;101925.15;110625;1258;18751;-55
2022/08/09 04:58:15;;;;;;;;;12.00;12.00;;;;;21.86;55.48;101921.98;110706;1258;19464;-57
2022/08/09 05:00:42;;;;;;;;;13.00;13.00;;;;;22.03;55.01;101927.58;110608;1258;18982;-57
2022/08/09 05:03:09;;;;;;;;;14.00;14.00;;;;;21.99;55.13;101932.00;110597;1258;18827;-57
2022/08/09 05:05:37;;;;;;;;;16.00;13.00;;;;;21.89;55.39;101931.56;110374;1261;19700;-57
2022/08/09 05:08:04;;;;;;;;;11.00;11.00;;;;;22.02;54.95;101931.31;110404;1260;22879;-56
2022/08/09 05:10:32;;;;;;;;;17.50;17.00;;;;;22.05;54.87;101932.65;110445;1260;18770;-55
2022/08/09 05:12:59;;;;;;;;;14.00;13.00;;;;;22.17;54.48;101934.80;110444;1260;19576;-55
2022/08/09 05:15:27;;;;;;;;;14.00;14.00;;;;;22.17;54.42;101935.89;110419;1260;18808;-58
2022/08/09 05:17:54;;;;;;;;;13.33;13.33;;;;;22.21;54.49;101934.29;110376;1261;18852;-56
2022/08/09 05:20:22;;;;;;;;;15.00;14.00;;;;;22.33;54.18;101938.73;110586;1258;19835;-58
2022/08/09 05:22:52;;;;;;;;;15.67;15.00;;;;;22.38;54.18;101944.70;110477;1260;20999;-57
2022/08/09 05:25:19;;;;;;;;;15.00;13.33;;;;;22.34;54.09;101950.10;110471;1260;21495;-56
2022/08/09 05:27:47;;;;;;;;;15.33;15.00;;;;;22.11;54.69;101948.11;110766;1258;19660;-55
2022/08/09 05:30:14;;;;;;;;;17.33;15.00;;;;;21.67;55.47;101949.25;110382;1261;19405;-55
2022/08/09 05:32:41;;;;;;;;;15.00;14.50;;;;;21.80;55.54;101947.23;110648;1258;18777;-56
2022/08/09 05:35:08;;;;;;;;;15.00;14.67;;;;;22.15;54.98;101949.00;110698;1259;19539;-52
2022/08/09 05:37:36;;;;;;;;;12.67;12.67;;;;;22.39;54.49;101947.23;110447;1260;18762;-55
2022/08/09 05:40:03;;;;;;;;;11.33;11.33;;;;;22.48;54.27;101948.44;110394;1260;19240;-50
2022/08/09 05:42:31;;;;;;;;;12.33;12.33;;;;;22.56;53.86;101951.80;110431;1261;20023;-53
2022/08/09 05:44:58;;;;;;;;;11.00;11.00;;;;;22.60;53.62;101950.67;110648;1258;18762;-58
2022/08/09 05:47:26;;;;;;;;;11.67;11.67;;;;;22.65;53.46;101948.28;110473;1260;18982;-57
2022/08/09 05:49:53;;;;;;;;;13.00;12.00;;;;;22.71;53.34;101949.66;110465;1260;19479;-54
2022/08/09 05:52:21;;;;;;;;;13.00;12.00;;;;;22.71;53.26;101950.89;110486;1260;20033;-54
2022/08/09 05:54:48;;;;;;;;;14.00;11.00;;;;;22.78;52.90;101951.71;110477;1260;18845;-56
2022/08/09 05:57:15;;;;;;;;;12.00;11.00;;;;;22.87;52.67;101948.21;110718;1258;22337;-55
2022/08/09 05:59:43;;;;;;;;;11.67;11.33;;;;;22.92;52.42;101947.84;110484;1260;18790;-56
2022/08/09 06:02:10;;;;;;;;;12.00;12.00;;;;;22.94;52.64;101949.84;110730;1258;22143;-58
2022/08/09 06:04:39;;;;;;;;;12.50;11.50;;;;;22.93;52.63;101953.82;110467;1260;19539;-56
2022/08/09 06:07:07;;;;;;;;;14.67;14.33;;;;;22.93;52.58;101955.05;110783;1258;18718;-57
2022/08/09 06:09:34;;;;;;;;;14.50;14.50;;;;;22.76;53.21;101959.73;110419;1261;19125;-57
2022/08/09 06:12:02;;;;;;;;;14.00;12.00;;;;;22.75;53.29;101961.03;110404;1260;20837;-56
2022/08/09 06:14:29;;;;;;;;;15.50;15.00;;;;;22.73;53.40;101959.95;110306;1260;21142;-53
2022/08/09 06:16:57;;;;;;;;;13.33;13.33;;;;;22.61;53.67;101963.11;110626;1258;18953;-55
2022/08/09 06:19:24;;;;;;;;;11.67;11.67;;;;;22.68;53.49;101963.31;110452;1260;21836;-55
2022/08/09 06:21:51;;;;;;;;;12.67;12.67;;;;;22.66;53.68;101966.02;110408;1260;18847;-54
2022/08/09 06:24:19;;;;;;;;;14.33;12.67;;;;;22.60;53.74;101964.53;110424;1260;19005;-55
2022/08/09 06:26:47;;;;;;;;;14.50;14.00;;;;;22.64;53.75;101964.29;110521;1258;19419;-55
2022/08/09 06:29:14;;;;;;;;;19.00;18.00;;;;;22.60;53.71;101968.30;110733;1258;19250;-54
2022/08/09 06:31:42;;;;;;;;;15.00;15.00;;;;;22.60;53.90;101967.62;110440;1260;18917;-57
2022/08/09 06:34:10;;;;;;;;;15.67;15.00;;;;;22.59;53.93;101967.40;110813;1258;19745;-56
2022/08/09 06:36:37;;;;;;;;;18.00;16.00;;;;;22.69;54.05;101972.15;110665;1258;22220;-57
2022/08/09 06:39:05;;;;;;;;;15.00;14.33;;;;;22.66;54.06;101973.67;110701;1258;21996;-56
2022/08/09 06:41:32;;;;;;;;;17.00;15.50;;;;;22.57;53.98;101978.86;110430;1258;20102;-53
2022/08/09 06:43:59;;;;;;;;;18.00;15.67;;;;;22.62;54.07;101977.05;110749;1258;20602;-56
2022/08/09 06:46:27;;;;;;;;;18.50;16.00;;;;;22.63;54.27;101977.48;110483;1260;18758;-55
2022/08/09 06:48:54;;;;;;;;;23.67;22.00;;;;;22.63;54.03;101979.35;110435;1260;19496;-56
2022/08/09 06:51:21;;;;;;;;;19.33;18.00;;;;;22.56;54.15;101980.05;110707;1258;23195;-56
2022/08/09 06:53:49;;;;;;;;;18.00;15.50;;;;;22.41;54.55;101983.08;110758;1258;19283;-56
2022/08/09 06:56:16;;;;;;;;;21.00;20.00;;;;;22.34;54.70;101981.24;110697;1258;19667;-54
2022/08/09 06:58:44;;;;;;;;;19.00;18.50;;;;;22.39;54.88;101981.63;110481;1260;19123;-54
2022/08/09 07:01:11;;;;;;;;;18.50;16.00;;;;;22.35;54.84;101986.04;110733;1258;18964;-54
2022/08/09 07:03:39;;;;;;;;;18.00;18.00;;;;;22.30;55.11;101984.35;110600;1258;19466;-57
2022/08/09 07:06:06;;;;;;;;;45.67;36.33;;;;;22.52;54.81;101986.33;110630;1258;18742;-54
2022/08/09 07:08:34;;;;;;;;;37.33;35.67;;;;;22.62;54.58;101987.10;110331;1260;22485;-54
2022/08/09 07:11:03;;;;;;;;;25.00;24.00;;;;;22.55;54.60;101996.73;110408;1260;20065;-55
2022/08/09 07:13:30;;;;;;;;;22.50;20.00;;;;;22.39;54.97;101995.63;110381;1260;22745;-55
2022/08/09 07:15:57;;;;;;;;;23.33;22.33;;;;;22.31;55.52;101994.32;110587;1258;18897;-50
2022/08/09 07:18:25;;;;;;;;;27.67;23.00;;;;;22.52;55.01;101995.42;110382;1260;19473;-57
2022/08/09 07:20:52;;;;;;;;;27.00;24.00;;;;;22.51;55.06;101996.76;110537;1258;18702;-55
2022/08/09 07:23:20;;;;;;;;;23.33;21.00;;;;;22.62;54.71;101994.86;110329;1258;22941;-56
2022/08/09 07:25:47;;;;;;;;;21.00;18.00;;;;;22.66;54.39;101998.27;110440;1257;19533;-55
2022/08/09 07:28:15;;;;;;;;;19.33;18.00;;;;;22.77;54.06;101997.88;110619;1258;18764;-56
2022/08/09 07:30:42;;;;;;;;;15.00;15.00;;;;;22.71;53.92;101997.65;110638;1258;22300;-56
2022/08/09 07:33:09;;;;;;;;;14.00;14.00;;;;;22.59;54.07;102004.30;110635;1258;19553;-55
2022/08/09 07:35:37;;;;;;;;;18.67;17.33;;;;;22.69;53.94;102005.98;110616;1258;19037;-56
2022/08/09 07:38:04;;;;;;;;;15.67;14.00;;;;;22.77;53.89;102004.10;110625;1258;18744;-55
2022/08/09 07:40:32;;;;;;;;;16.67;15.33;;;;;22.91;53.55;102003.19;110408;1261;19721;-56
2022/08/09 07:42:59;;;;;;;;;16.00;15.67;;;;;23.03;53.47;102002.83;110376;1260;18794;-57
2022/08/09 07:45:27;;;;;;;;;19.00;18.00;;;;;22.99;53.11;102003.42;110331;1260;20656;-57
2022/08/09 07:47:54;;;;;;;;;14.33;14.00;;;;;22.94;53.31;102002.70;110633;1258;19985;-55
2022/08/09 07:50:22;;;;;;;;;18.00;16.00;;;;;22.92;53.25;102001.09;110637;1258;18685;-55
2022/08/09 07:52:49;;;;;;;;;21.00;19.00;;;;;23.07;53.26;102004.12;110663;1259;23584;-54
2022/08/09 07:55:16;;;;;;;;;15.00;15.00;;;;;23.31;52.93;102000.04;110322;1261;21326;-57
2022/08/09 07:57:46;;;;;;;;;16.00;15.33;;;;;23.17;52.70;101998.12;110549;1258;22246;-54
2022/08/09 08:00:13;;;;;;;;;14.67;14.67;;;;;23.26;52.66;101999.68;110466;1258;23306;-55
2022/08/09 08:02:41;;;;;;;;;14.00;12.00;;;;;23.45;52.23;102002.40;110402;1260;22233;-55
2022/08/09 08:05:08;;;;;;;;;14.00;12.00;;;;;23.55;51.89;102002.10;110297;1259;21149;-55
2022/08/09 08:07:35;;;;;;;;;14.33;13.33;;;;;23.53;51.57;102002.77;110284;1260;18778;-54
2022/08/09 08:10:03;;;;;;;;;14.00;11.33;;;;;23.48;51.28;102000.05;110091;1260;19697;-57
2022/08/09 08:12:30;;;;;;;;;12.00;10.00;;;;;23.64;51.02;101999.61;110596;1258;18694;-53
2022/08/09 08:14:58;;;;;;;;;12.67;12.00;;;;;23.87;50.48;101998.38;110496;1259;19016;-55
2022/08/09 08:17:25;;;;;;;;;14.00;13.00;;;;;23.94;50.07;101999.68;110319;1260;19473;-54
2022/08/09 08:19:52;;;;;;;;;11.67;10.67;;;;;23.97;49.30;102001.09;110277;1260;18760;-56
2022/08/09 08:22:20;;;;;;;;;10.00;10.00;;;;;23.93;48.75;102002.29;110536;1258;19259;-59
2022/08/09 08:24:50;;;;;;;;;10.33;9.33;;;;;24.01;48.47;101997.48;110560;1258;19534;-57
2022/08/09 08:27:18;;;;;;;;;11.00;11.00;;;;;24.02;48.43;102002.52;110673;1258;18753;-57
2022/08/09 08:29:45;;;;;;;;;16.00;14.50;;;;;23.96;48.76;102002.67;110474;1258;18790;-55
2022/08/09 08:32:12;;;;;;;;;12.00;11.00;;;;;23.79;49.04;102003.70;110396;1258;20115;-54
2022/08/09 08:34:39;;;;;;;;;13.00;12.00;;;;;23.78;49.10;102002.89;110583;1258;22928;-53
2022/08/09 08:37:07;;;;;;;;;12.00;12.00;;;;;23.84;48.73;102006.05;110587;1258;21941;-56
2022/08/09 08:39:34;;;;;;;;;14.00;12.00;;;;;23.92;48.85;102006.67;110476;1259;20861;-57
2022/08/09 08:42:02;;;;;;;;;20.33;18.00;;;;;24.00;48.99;102006.13;110517;1258;19183;-56
2022/08/09 08:44:29;;;;;;;;;15.00;15.00;;;;;24.01;48.83;102009.66;110478;1258;18828;-56
2022/08/09 08:46:57;;;;;;;;;17.00;15.00;;;;;24.02;48.79;102007.38;110750;1258;19774;-55
2022/08/09 08:49:24;;;;;;;;;14.00;13.00;;;;;24.02;48.75;102008.09;110478;1260;18744;-55
2022/08/09 08:51:51;;;;;;;;;16.00;15.00;;;;;23.84;48.78;102010.64;110592;1259;18854;-57
2022/08/09 08:54:19;;;;;;;;;15.67;15.67;;;;;23.94;49.09;102008.42;110634;1258;19397;-55
2022/08/09 08:56:47;;;;;;;;;17.67;16.33;;;;;24.02;49.03;102009.05;110684;1258;18716;-58
2022/08/09 08:59:14;;;;;;;;;15.00;15.00;;;;;24.04;49.09;102006.38;110424;1258;19251;-52
2022/08/09 09:01:41;;;;;;;;;16.67;16.67;;;;;24.10;49.21;102006.84;110434;1261;19941;-54
2022/08/09 09:04:09;;;;;;;;;14.33;14.33;;;;;24.15;48.79;102005.38;110609;1259;24231;-56
2022/08/09 09:06:36;;;;;;;;;12.33;12.33;;;;;24.13;47.96;102009.94;110604;1259;18842;-57
2022/08/09 09:09:04;;;;;;;;;12.00;12.00;;;;;24.04;47.55;102007.00;110417;1260;19872;-56
2022/08/09 09:11:31;;;;;;;;;12.00;11.00;;;;;24.00;46.75;102006.27;110345;1260;18869;-56
2022/08/09 09:13:59;;;;;;;;;12.67;12.67;;;;;24.12;46.54;102003.35;110276;1260;18843;-54
2022/08/09 09:16:26;;;;;;;;;12.00;12.00;;;;;24.28;46.40;101998.10;110686;1258;19535;-54
2022/08/09 09:18:54;;;;;;;;;13.00;13.00;;;;;24.50;46.90;101993.89;110657;1258;18771;-56
2022/08/09 09:21:22;;;;;;;;;13.50;13.50;;;;;24.75;47.67;101991.70;110664;1258;18693;-57
2022/08/09 09:23:50;;;;;;;;;12.67;12.67;;;;;24.83;47.20;101992.39;110418;1260;19647;-57
2022/08/09 09:26:18;;;;;;;;;12.00;12.00;;;;;24.75;47.14;101993.04;110606;1258;19340;-58
2022/08/09 09:28:45;;;;;;;;;14.00;13.00;;;;;24.66;46.89;101995.65;110563;1258;19027;-56
2022/08/09 09:31:13;;;;;;;;;17.33;13.33;;;;;24.72;46.50;101990.55;110351;1261;19773;-58
2022/08/09 09:33:40;;;;;;;;;14.50;13.00;;;;;24.83;46.34;101989.95;110347;1260;18709;-56
2022/08/09 09:36:07;;;;;;;;;14.00;13.00;;;;;24.85;46.22;101990.80;110340;1260;19125;-56
2022/08/09 09:38:35;;;;;;;;;13.00;13.00;;;;;24.83;46.40;101994.89;110634;1258;19534;-54
2022/08/09 09:41:02;;;;;;;;;15.33;13.00;;;;;24.84;46.74;101993.89;110350;1260;18831;-57
2022/08/09 09:43:29;;;;;;;;;13.33;13.33;;;;;24.52;46.86;101996.69;110357;1260;19048;-57
2022/08/09 09:45:57;;;;;;;;;12.33;12.00;;;;;24.41;47.00;101996.99;110624;1258;19535;-57
2022/08/09 09:48:24;;;;;;;;;15.50;14.00;;;;;24.42;47.01;102000.25;110617;1258;18775;-58
2022/08/09 09:50:53;;;;;;;;;11.67;11.67;;;;;24.45;46.89;101999.67;110655;1258;18824;-55
2022/08/09 09:53:20;;;;;;;;;13.00;12.67;;;;;24.44;47.06;102001.27;110363;1261;22285;-56
2022/08/09 09:55:47;;;;;;;;;16.00;13.50;;;;;24.48;47.07;101999.34;110404;1260;18800;-55
2022/08/09 09:58:15;;;;;;;;;17.33;13.00;;;;;24.51;46.86;102000.81;110402;1260;29721;-55
2022/08/09 10:00:42;;;;;;;;;14.33;14.00;;;;;24.48;47.09;101998.23;110590;1259;19476;-56
2022/08/09 10:03:10;;;;;;;;;17.00;16.00;;;;;24.42;47.60;101995.59;110534;1258;18777;-56
2022/08/09 10:05:38;;;;;;;;;14.00;14.00;;;;;24.33;48.15;101996.70;110236;1261;19538;-57
2022/08/09 10:08:05;;;;;;;;;19.00;17.33;;;;;24.28;48.43;101995.15;110508;1258;19438;-56
2022/08/09 10:10:32;;;;;;;;;19.00;18.00;;;;;24.31;48.40;101996.15;110419;1260;18792;-53
2022/08/09 10:13:00;;;;;;;;;19.50;18.00;;;;;24.28;48.38;101996.45;110315;1260;18828;-53
2022/08/09 10:15:27;;;;;;;;;21.00;21.00;;;;;24.30;48.51;101998.85;110686;1258;22225;-54
2022/08/09 10:17:54;;;;;;;;;17.00;17.00;;;;;24.29;48.42;101996.15;110646;1258;18802;-55
2022/08/09 10:20:22;;;;;;;;;21.50;19.00;;;;;24.33;48.40;101996.33;110684;1258;22855;-55
2022/08/09 10:22:49;;;;;;;;;17.33;17.00;;;;;24.36;48.08;101994.67;110760;1258;19524;-56
2022/08/09 10:25:17;;;;;;;;;18.00;18.00;;;;;24.47;47.78;101994.23;110738;1258;18684;-55
2022/08/09 10:27:44;;;;;;;;;18.50;17.50;;;;;24.66;47.89;101996.20;110705;1258;18748;-54
2022/08/09 10:30:11;;;;;;;;;16.00;16.00;;;;;24.48;47.17;101996.48;110392;1260;19631;-58
2022/08/09 10:32:39;;;;;;;;;18.00;17.67;;;;;24.42;47.60;101993.82;110428;1260;18730;-54
2022/08/09 10:35:07;;;;;;;;;16.00;15.67;;;;;24.39;47.80;101990.87;110440;1260;22833;-58
2022/08/09 10:37:34;;;;;;;;;23.00;18.00;;;;;24.42;48.32;101986.31;110459;1260;19547;-56
2022/08/09 10:40:01;;;;;;;;;18.00;17.00;;;;;24.44;47.67;101986.33;110720;1258;22800;-55
2022/08/09 10:42:29;;;;;;;;;18.00;17.00;;;;;24.49;47.26;101990.84;110609;1258;19120;-55
2022/08/09 10:44:56;;;;;;;;;16.00;16.00;;;;;24.42;47.39;101985.42;110651;1258;20077;-55
2022/08/09 10:47:23;;;;;;;;;17.33;17.00;;;;;24.40;47.86;101986.21;110658;1258;18726;-56
2022/08/09 10:49:51;;;;;;;;;18.00;17.33;;;;;24.40;47.64;101992.27;110728;1258;19096;-56
2022/08/09 10:52:18;;;;;;;;;19.00;19.00;;;;;24.45;47.58;101990.52;110298;1259;20962;-55
2022/08/09 10:54:47;;;;;;;;;14.00;14.00;;;;;24.49;47.73;101985.77;110535;1258;18762;-54
2022/08/09 10:57:15;;;;;;;;;16.00;16.00;;;;;24.41;47.45;101981.93;110175;1260;18872;-56
2022/08/09 10:59:44;;;;;;;;;18.67;17.33;;;;;24.31;46.89;101980.80;110666;1257;19484;-52
2022/08/09 11:02:12;;;;;;;;;13.33;13.33;;;;;24.36;46.51;101980.27;110359;1261;18743;-55